Terminal Aerodrome Forecast
Issued by NWS Sioux Falls, SD

Home | Current Version | Previous Version | Text Only | Print | Product List | Glossary On
Versions: 1 2 3 4 5 6 7 8 9 10 11 12 13 14 15 16
278
FTUS43 KFSD 251724
TAFFSD
TAF
KFSD 251724Z 2518/2618 19008KT P6SM BKN040
     FM252000 20009KT P6SM SCT050
     FM260100 18006KT P6SM FEW070
     FM260900 25004KT P6SM SCT200
     FM261500 31006KT P6SM FEW040=

USA.gov is the U.S. government's official web portal to all federal, state and local government web resources and services.